createdAt,value
2022-08-28T00:02:44.000Z,1012.73
2022-08-28T00:16:43.981Z,1012.63
2022-08-28T00:30:43.968Z,1012.63
2022-08-28T00:44:44.000Z,1012.82
2022-08-28T00:58:44.019Z,1012.86
2022-08-28T01:12:44.032Z,1012.69
2022-08-28T01:26:44.023Z,1012.6
2022-08-28T01:40:44.144Z,1012.73
2022-08-28T01:54:44.125Z,1012.8
2022-08-28T02:08:44.115Z,1012.94
2022-08-28T02:22:44.145Z,1012.89
2022-08-28T02:36:44.106Z,1012.89
2022-08-28T02:50:44.099Z,1012.78
2022-08-28T03:04:44.106Z,1012.74
2022-08-28T03:18:44.150Z,1012.79
2022-08-28T03:32:44.162Z,1012.72
2022-08-28T03:46:44.171Z,1012.76
2022-08-28T04:00:44.203Z,1012.76
2022-08-28T04:14:44.188Z,1012.75
2022-08-28T04:29:44.193Z,1012.88
2022-08-28T04:44:44.186Z,1012.92
2022-08-28T05:00:44.189Z,1013.01
2022-08-28T05:15:44.184Z,1013.24
2022-08-28T05:30:44.175Z,1013.38
2022-08-28T05:45:44.254Z,1013.43
2022-08-28T06:00:44.238Z,1013.71
2022-08-28T06:15:44.250Z,1013.94
2022-08-28T06:30:57.440Z,1013.97
2022-08-28T06:45:44.253Z,1014
2022-08-28T07:00:44.211Z,1014.19
2022-08-28T07:15:44.274Z,1014.36
2022-08-28T07:30:44.287Z,1014.41
2022-08-28T07:45:44.331Z,1014.53
2022-08-28T08:00:44.249Z,1014.46
2022-08-28T08:15:46.686Z,1014.43
2022-08-28T08:30:45.266Z,1014.45
2022-08-28T08:45:44.310Z,1014.48
2022-08-28T09:00:44.299Z,1014.5
2022-08-28T09:15:47.481Z,1014.47
2022-08-28T09:30:44.442Z,1014.36
2022-08-28T09:45:44.423Z,1014.35
2022-08-28T10:00:44.707Z,1014.52
2022-08-28T10:15:44.826Z,1014.39
2022-08-28T10:30:44.926Z,1014.37
2022-08-28T10:45:44.826Z,1014.37
2022-08-28T11:00:44.823Z,1014.41
2022-08-28T11:15:44.819Z,1014.38
2022-08-28T11:30:44.870Z,1014.38
2022-08-28T11:45:45.888Z,1014.23
2022-08-28T12:00:44.926Z,1014.19
2022-08-28T12:15:45.013Z,1014.07
2022-08-28T12:30:44.979Z,1013.87
2022-08-28T12:45:44.964Z,1013.81
2022-08-28T13:00:44.947Z,1013.72
2022-08-28T13:15:44.984Z,1013.68
2022-08-28T13:30:45.016Z,1013.53
2022-08-28T13:45:45.080Z,1013.37
2022-08-28T14:01:45.056Z,1013.39
2022-08-28T14:17:45.013Z,1013.39
2022-08-28T14:32:45.049Z,1013.5
2022-08-28T14:47:45.048Z,1013.5
2022-08-28T15:03:45.112Z,1013.55
2022-08-28T15:18:45.744Z,1013.63
2022-08-28T15:33:45.430Z,1013.68
2022-08-28T15:49:50.083Z,1013.65
2022-08-28T16:04:45.219Z,1013.61
2022-08-28T16:19:45.220Z,1013.54
2022-08-28T16:35:47.914Z,1013.73
2022-08-28T16:50:45.264Z,1013.75
2022-08-28T17:05:45.234Z,1013.81
2022-08-28T17:20:45.327Z,1013.9
2022-08-28T17:35:45.332Z,1014.13
2022-08-28T17:50:45.389Z,1014.5
2022-08-28T18:05:45.520Z,1014.69
2022-08-28T18:20:45.523Z,1014.9
2022-08-28T18:35:48.854Z,1015.14
2022-08-28T18:49:45.652Z,1015.09
2022-08-28T19:04:45.685Z,1015.33
2022-08-28T19:18:45.683Z,1015.8
2022-08-28T19:32:45.655Z,1016.6
2022-08-28T20:00:45.718Z,1016.44
2022-08-28T20:14:45.748Z,1016.83
2022-08-28T20:28:45.779Z,1016.64
2022-08-28T20:42:45.797Z,1016.85
2022-08-28T20:56:45.773Z,1016.86
2022-08-28T21:10:45.791Z,1016.81
2022-08-28T21:24:45.919Z,1016.78
2022-08-28T21:38:46.192Z,1016.47
2022-08-28T21:52:45.938Z,1016.32
2022-08-28T22:06:45.946Z,1016.37
2022-08-28T22:20:45.947Z,1016.74
2022-08-28T22:34:46.012Z,1016.78
2022-08-28T22:48:46.064Z,1016.87
2022-08-28T23:02:46.076Z,1016.6
2022-08-28T23:16:46.084Z,1016.64
2022-08-28T23:30:48.441Z,1016.69
2022-08-28T23:44:46.307Z,1016.59
2022-08-28T23:58:46.297Z,1016.48
